Time;durP1;ratioP1;P1;durP2;ratioP2;P2;SDS_P1;SDS_P2;PMS_P1;PMS_P2;Temp;Humidity;BMP_temperature;BMP_pressure;BME280_temperature;BME280_humidity;BME280_pressure;Samples;Min_cycle;Max_cycle;Signal;HPM_P1;HPM_P2
2022/08/22 00:00:12;;;;;;;7.13;5.78;;;;;25.00;100524.00;;;;2085771;28;20216;-55
2022/08/22 00:01:16;;;;;;;5.75;4.63;;;;;25.00;100525.00;;;;2087816;28;20315;-56
2022/08/22 00:02:31;;;;;;;6.67;5.33;;;;;25.00;100517.00;;;;2093871;28;20219;-55
2022/08/22 00:03:49;;;;;;;6.38;5.00;;;;;25.00;100517.00;;;;2093327;28;20446;-55
2022/08/22 00:05:00;;;;;;;7.72;5.60;;;;;25.00;100518.00;;;;2085860;28;20696;-55
2022/08/22 00:06:08;;;;;;;7.13;5.00;;;;;25.00;100517.00;;;;2085223;28;20220;-55
2022/08/22 00:07:31;;;;;;;6.43;4.85;;;;;25.00;100501.00;;;;2078050;28;20244;-56
2022/08/22 00:08:40;;;;;;;7.50;4.85;;;;;25.00;100495.00;;;;2085315;28;20315;-55
2022/08/22 00:09:43;;;;;;;6.78;4.70;;;;;25.00;100516.00;;;;2080044;28;20217;-56
2022/08/22 00:11:02;;;;;;;5.07;4.43;;;;;25.00;100520.00;;;;2086055;28;20209;-56
2022/08/22 00:12:11;;;;;;;6.00;4.57;;;;;25.10;100516.00;;;;2086077;28;20465;-55
2022/08/22 00:13:21;;;;;;;7.13;4.80;;;;;25.00;100499.00;;;;2083383;28;20709;-56
2022/08/22 00:14:32;;;;;;;5.57;4.70;;;;;25.00;100516.00;;;;2086213;28;20274;-56
2022/08/22 00:15:36;;;;;;;5.90;4.40;;;;;25.00;100519.00;;;;2091364;28;20212;-54
2022/08/22 00:17:12;;;;;;;5.68;4.53;;;;;25.00;100514.00;;;;2093380;28;20442;-54
2022/08/22 00:18:31;;;;;;;5.25;3.92;;;;;25.00;100533.00;;;;2075718;28;20249;-54
2022/08/22 00:20:01;;;;;;;6.13;4.13;;;;;25.00;100515.00;;;;2086298;28;20236;-54
2022/08/22 00:21:13;;;;;;;6.82;4.70;;;;;25.00;100510.00;;;;2096061;28;20695;-55
2022/08/22 00:22:32;;;;;;;5.93;4.13;;;;;25.00;100495.00;;;;2094435;28;20262;-54
2022/08/22 00:23:37;;;;;;;5.53;4.03;;;;;25.00;100518.00;;;;2094338;28;20224;-54
2022/08/22 00:25:02;;;;;;;4.70;3.50;;;;;25.00;100517.00;;;;2087964;28;20213;-54
2022/08/22 00:26:19;;;;;;;5.53;4.30;;;;;25.00;100516.00;;;;2072843;28;20305;-54
2022/08/22 00:27:22;;;;;;;5.65;4.07;;;;;25.00;100498.00;;;;2076107;28;20309;-54
2022/08/22 00:28:27;;;;;;;5.07;4.00;;;;;25.00;100517.00;;;;2071789;28;20576;-54
2022/08/22 00:29:55;;;;;;;5.57;3.75;;;;;25.10;100519.00;;;;2084370;28;20224;-54
2022/08/22 00:31:06;;;;;;;5.70;4.18;;;;;25.00;100519.00;;;;2089510;28;20225;-54
2022/08/22 00:32:34;;;;;;;5.05;4.35;;;;;25.00;100518.00;;;;2081535;28;20220;-53
2022/08/22 00:33:44;;;;;;;5.22;4.15;;;;;25.00;100533.00;;;;2079856;28;20219;-54
2022/08/22 00:35:07;;;;;;;5.40;3.20;;;;;25.00;100519.00;;;;2076232;28;20563;-54
2022/08/22 00:36:23;;;;;;;3.90;3.30;;;;;25.00;100521.00;;;;2080207;28;20320;-54
2022/08/22 00:37:40;;;;;;;3.85;3.20;;;;;24.90;100521.00;;;;2090624;28;20466;-54
2022/08/22 00:38:48;;;;;;;4.75;3.30;;;;;25.00;100512.00;;;;2085600;28;20216;-55
2022/08/22 00:39:59;;;;;;;4.13;3.50;;;;;24.90;100512.00;;;;2080086;28;20213;-54
2022/08/22 00:41:26;;;;;;;4.13;3.30;;;;;25.00;100517.00;;;;2094137;28;20458;-54
2022/08/22 00:43:03;;;;;;;4.20;3.42;;;;;25.00;100503.00;;;;2094260;28;20246;-54
2022/08/22 00:44:41;;;;;;;4.47;3.40;;;;;24.90;100517.00;;;;2094630;28;20648;-54
2022/08/22 00:45:54;;;;;;;3.55;3.10;;;;;24.90;100515.00;;;;2094660;28;20758;-54
2022/08/22 00:47:28;;;;;;;3.53;2.88;;;;;24.90;100508.00;;;;2095084;28;20243;-54
2022/08/22 00:48:49;;;;;;;3.22;2.88;;;;;24.90;100511.00;;;;2094933;28;20591;-54
2022/08/22 00:50:25;;;;;;;5.75;3.15;;;;;24.80;100510.00;;;;2086022;28;20215;-55
2022/08/22 00:52:07;;;;;;;2.97;2.58;;;;;24.90;100523.00;;;;2097590;28;20249;-55
2022/08/22 00:53:35;;;;;;;3.40;3.10;;;;;24.90;100508.00;;;;2076266;28;20321;-54
2022/08/22 00:54:50;;;;;;;3.65;2.90;;;;;24.90;100512.00;;;;2076536;28;20594;-54
2022/08/22 00:56:19;;;;;;;3.28;2.97;;;;;24.90;100506.00;;;;2083391;28;20243;-54
2022/08/22 00:57:31;;;;;;;3.72;2.80;;;;;24.90;100513.00;;;;2063655;28;20207;-55
2022/08/22 00:58:38;;;;;;;4.10;2.90;;;;;24.90;100506.00;;;;2094958;28;20786;-54
2022/08/22 01:00:04;;;;;;;2.88;2.67;;;;;24.90;100510.00;;;;2094197;28;20277;-54
2022/08/22 01:01:06;;;;;;;4.20;2.80;;;;;24.80;100517.00;;;;2090775;28;20254;-54
2022/08/22 01:02:28;;;;;;;3.35;2.70;;;;;24.80;100512.00;;;;2090562;28;20223;-54
2022/08/22 01:03:28;;;;;;;4.88;2.85;;;;;24.90;100512.00;;;;2094948;28;20269;-54
2022/08/22 01:05:03;;;;;;;2.90;2.60;;;;;24.90;100514.00;;;;2088122;28;20304;-54
2022/08/22 01:06:22;;;;;;;3.90;2.80;;;;;24.90;100509.00;;;;2081775;28;20320;-55
2022/08/22 01:07:44;;;;;;;3.85;2.42;;;;;24.90;100515.00;;;;2080423;28;20216;-54
2022/08/22 01:08:59;;;;;;;2.80;2.40;;;;;24.80;100509.00;;;;2091661;28;20204;-57
2022/08/22 01:10:18;;;;;;;2.15;1.90;;;;;24.80;100505.00;;;;2096263;28;20630;-54
2022/08/22 01:11:48;;;;;;;3.75;2.70;;;;;24.80;100507.00;;;;2095458;28;20243;-54
2022/08/22 01:13:01;;;;;;;3.72;2.50;;;;;24.80;100486.00;;;;2089484;28;20213;-54
2022/08/22 01:14:13;;;;;;;2.75;2.30;;;;;24.80;100506.00;;;;2080770;28;20209;-54
2022/08/22 01:15:21;;;;;;;4.43;2.30;;;;;24.90;100509.00;;;;2085909;28;20239;-54
2022/08/22 01:16:33;;;;;;;2.90;2.40;;;;;24.80;100512.00;;;;2080076;28;20452;-54
2022/08/22 01:18:03;;;;;;;2.88;2.40;;;;;24.90;100510.00;;;;2088367;28;20506;-54
2022/08/22 01:19:22;;;;;;;3.60;2.40;;;;;24.90;100514.00;;;;2095529;28;20750;-54
2022/08/22 01:20:40;;;;;;;2.70;2.40;;;;;24.90;100510.00;;;;2089818;28;20213;-55
2022/08/22 01:21:58;;;;;;;3.10;2.83;;;;;24.90;100516.00;;;;2095897;28;20357;-54
2022/08/22 01:23:26;;;;;;;2.40;2.13;;;;;24.90;100515.00;;;;2087435;28;20219;-54
2022/08/22 01:25:16;;;;;;;2.85;2.33;;;;;24.90;100522.00;;;;2092318;28;20958;-54
2022/08/22 01:26:42;;;;;;;3.65;2.65;;;;;24.80;100518.00;;;;2095811;28;20365;-54
2022/08/22 01:28:25;;;;;;;3.65;2.35;;;;;24.80;100519.00;;;;2095155;28;20297;-54
2022/08/22 01:29:53;;;;;;;3.08;2.47;;;;;24.80;100523.00;;;;2090240;28;20295;-54
2022/08/22 01:31:32;;;;;;;2.50;2.30;;;;;24.80;100521.00;;;;2095116;28;20771;-54
2022/08/22 01:33:14;;;;;;;2.47;2.28;;;;;24.80;100516.00;;;;2095796;28;20216;-54
2022/08/22 01:34:39;;;;;;;2.30;1.92;;;;;24.80;100519.00;;;;2095400;28;20743;-54
2022/08/22 01:35:39;;;;;;;2.67;2.00;;;;;24.90;100510.00;;;;2086843;28;20212;-54
2022/08/22 01:37:03;;;;;;;2.90;2.40;;;;;24.90;100510.00;;;;2089013;28;20772;-54
2022/08/22 01:38:21;;;;;;;2.70;2.40;;;;;24.90;100501.00;;;;2095370;28;20208;-54
2022/08/22 01:39:59;;;;;;;2.95;2.10;;;;;24.80;100507.00;;;;2094854;28;20220;-55
2022/08/22 01:41:16;;;;;;;2.35;2.08;;;;;24.80;100513.00;;;;2096147;28;20204;-54
2022/08/22 01:42:54;;;;;;;2.38;2.13;;;;;24.80;100509.00;;;;2096245;28;20212;-54
2022/08/22 01:44:02;;;;;;;2.30;2.10;;;;;24.80;100509.00;;;;2086139;28;20222;-55
2022/08/22 01:45:24;;;;;;;3.40;2.30;;;;;24.80;100510.00;;;;2095840;28;20832;-54
2022/08/22 01:46:39;;;;;;;2.60;2.05;;;;;24.80;100504.00;;;;2095851;28;20228;-54
2022/08/22 01:47:45;;;;;;;2.28;1.95;;;;;24.80;100425.00;;;;2094502;28;20235;-54
2022/08/22 01:49:09;;;;;;;2.92;2.38;;;;;24.90;100509.00;;;;2095524;28;20205;-54
2022/08/22 01:50:28;;;;;;;2.53;2.00;;;;;24.80;100509.00;;;;2096115;28;20239;-54
2022/08/22 01:51:35;;;;;;;2.70;2.20;;;;;24.80;100509.00;;;;2095225;28;20239;-54
2022/08/22 01:53:07;;;;;;;2.45;2.03;;;;;24.80;100508.00;;;;2088249;28;20987;-54
2022/08/22 01:54:22;;;;;;;2.03;1.80;;;;;24.80;100488.00;;;;2090678;28;20208;-54
2022/08/22 01:55:32;;;;;;;3.25;2.40;;;;;24.80;100511.00;;;;2092909;28;20454;-55
2022/08/22 01:56:35;;;;;;;2.70;2.10;;;;;24.80;100507.00;;;;2095106;28;21077;-55
2022/08/22 01:57:49;;;;;;;2.55;1.92;;;;;24.80;100515.00;;;;2086066;28;20224;-55
2022/08/22 01:58:57;;;;;;;2.90;2.30;;;;;24.80;100512.00;;;;2082807;28;20247;-56
2022/08/22 01:59:59;;;;;;;2.40;2.20;;;;;24.80;100513.00;;;;2085416;28;20224;-56
2022/08/22 02:01:21;;;;;;;1.83;1.70;;;;;24.80;100516.00;;;;2079024;28;20217;-56
2022/08/22 02:02:24;;;;;;;3.25;2.10;;;;;24.80;100521.00;;;;2088627;28;20283;-55
2022/08/22 02:03:34;;;;;;;2.28;1.92;;;;;24.80;100511.00;;;;2094792;28;20220;-56
2022/08/22 02:04:41;;;;;;;2.00;1.77;;;;;24.80;100493.00;;;;2095311;28;20299;-56
2022/08/22 02:06:12;;;;;;;2.17;1.90;;;;;24.80;100506.00;;;;2087893;28;20217;-56
2022/08/22 02:07:30;;;;;;;2.10;1.90;;;;;24.80;100512.00;;;;2091035;28;20458;-56
2022/08/22 02:08:51;;;;;;;2.73;2.17;;;;;24.80;100509.00;;;;2084963;28;20448;-56
2022/08/22 02:10:24;;;;;;;2.22;2.03;;;;;24.80;100510.00;;;;2076336;28;20448;-56
2022/08/22 02:11:44;;;;;;;2.28;2.08;;;;;24.80;100566.00;;;;2094802;28;20231;-56
2022/08/22 02:12:51;;;;;;;2.50;2.10;;;;;24.80;100505.00;;;;2095310;28;20223;-56
2022/08/22 02:13:59;;;;;;;2.45;1.58;;;;;24.80;100513.00;;;;2087833;28;20292;-55
2022/08/22 02:15:43;;;;;;;2.65;2.45;;;;;24.80;100513.00;;;;2078668;28;20617;-57
2022/08/22 02:16:46;;;;;;;1.80;1.65;;;;;24.80;100509.00;;;;2081094;28;20287;-55
2022/08/22 02:18:04;;;;;;;2.37;1.70;;;;;24.80;100503.00;;;;2071907;28;20218;-55
2022/08/22 02:19:14;;;;;;;2.35;2.15;;;;;24.80;100504.00;;;;2071924;28;20457;-56
2022/08/22 02:20:22;;;;;;;1.88;1.60;;;;;24.80;100503.00;;;;2080046;28;21777;-55
2022/08/22 02:21:29;;;;;;;2.70;1.93;;;;;24.80;100502.00;;;;2086068;28;20323;-56
2022/08/22 02:22:35;;;;;;;4.13;2.10;;;;;24.80;100510.00;;;;2072812;28;20992;-55
2022/08/22 02:23:58;;;;;;;2.75;1.88;;;;;24.80;100503.00;;;;2076610;28;20877;-54
2022/08/22 02:25:05;;;;;;;2.30;1.90;;;;;24.80;100507.00;;;;2088702;28;20215;-56
2022/08/22 02:26:08;;;;;;;2.38;1.98;;;;;24.80;100508.00;;;;2086311;28;20229;-55
2022/08/22 02:27:34;;;;;;;2.38;2.00;;;;;24.80;100504.00;;;;2079289;28;20228;-56
2022/08/22 02:28:56;;;;;;;3.13;1.90;;;;;24.80;100498.00;;;;2090398;28;20691;-56
2022/08/22 02:30:04;;;;;;;2.10;1.90;;;;;24.80;100499.00;;;;2086659;28;20205;-56
2022/08/22 02:31:10;;;;;;;2.30;2.00;;;;;24.80;100504.00;;;;2089046;28;21006;-55
2022/08/22 02:32:23;;;;;;;3.42;2.00;;;;;24.80;100499.00;;;;2090370;28;20308;-55
2022/08/22 02:33:47;;;;;;;2.70;1.85;;;;;24.80;100504.00;;;;2086298;28;20662;-55
2022/08/22 02:35:13;;;;;;;2.70;2.10;;;;;24.80;100495.00;;;;2081601;28;20273;-55
2022/08/22 02:36:18;;;;;;;2.03;1.80;;;;;24.80;100507.00;;;;2091673;28;20450;-56
2022/08/22 02:37:21;;;;;;;2.58;2.05;;;;;24.80;100495.00;;;;2086150;28;21061;-55
2022/08/22 02:38:58;;;;;;;2.90;1.83;;;;;24.70;100498.00;;;;2087838;28;20209;-55
2022/08/22 02:40:20;;;;;;;2.10;1.80;;;;;24.70;100497.00;;;;2094175;28;20876;-56
2022/08/22 02:41:28;;;;;;;2.72;2.33;;;;;24.70;100496.00;;;;2086321;28;20288;-55
2022/08/22 02:42:51;;;;;;;3.72;2.10;;;;;24.70;100498.00;;;;2086899;28;20221;-56
2022/08/22 02:44:02;;;;;;;2.67;2.05;;;;;24.80;100485.00;;;;2089554;28;20286;-55
2022/08/22 02:45:25;;;;;;;2.08;1.80;;;;;24.80;100493.00;;;;2087872;28;20295;-56
2022/08/22 02:46:57;;;;;;;2.03;1.90;;;;;24.80;100497.00;;;;2087073;28;20220;-55
2022/08/22 02:48:05;;;;;;;3.20;1.80;;;;;24.80;100494.00;;;;2091896;28;20482;-55
2022/08/22 02:49:21;;;;;;;3.05;2.10;;;;;24.70;100474.00;;;;2094973;28;20212;-55
2022/08/22 02:50:29;;;;;;;2.67;2.07;;;;;24.70;100497.00;;;;2086816;28;20213;-55
2022/08/22 02:51:52;;;;;;;3.03;2.00;;;;;24.70;100491.00;;;;2081330;28;20555;-57
2022/08/22 02:53:18;;;;;;;2.33;1.80;;;;;24.70;100491.00;;;;2076252;28;20535;-55
2022/08/22 02:54:27;;;;;;;2.23;1.90;;;;;24.70;100494.00;;;;2091444;28;20215;-56
2022/08/22 02:55:59;;;;;;;2.40;2.10;;;;;24.80;100489.00;;;;2081970;28;20447;-56
2022/08/22 02:57:00;;;;;;;4.32;1.80;;;;;24.70;100493.00;;;;2089016;28;20469;-59
2022/08/22 02:58:22;;;;;;;2.80;1.67;;;;;24.70;100487.00;;;;2085827;28;20209;-56
2022/08/22 02:59:25;;;;;;;2.90;1.90;;;;;24.80;100493.00;;;;2087747;28;20522;-56
2022/08/22 03:00:30;;;;;;;1.97;1.60;;;;;24.70;100491.00;;;;2094936;28;20212;-55
2022/08/22 03:01:30;;;;;;;2.10;1.90;;;;;24.70;100496.00;;;;2095276;28;20447;-60
2022/08/22 03:02:30;;;;;;;2.03;1.80;;;;;24.80;100492.00;;;;2095468;28;20450;-61
2022/08/22 03:03:36;;;;;;;1.50;1.40;;;;;24.70;100496.00;;;;2095514;28;20208;-56
2022/08/22 03:04:39;;;;;;;1.93;1.70;;;;;24.80;100490.00;;;;2094949;28;20676;-56
2022/08/22 03:05:44;;;;;;;5.60;2.13;;;;;24.70;100513.00;;;;2092104;28;20446;-56
2022/08/22 03:07:27;;;;;;;2.23;2.00;;;;;24.80;100485.00;;;;2086840;28;20963;-55
2022/08/22 03:08:38;;;;;;;3.70;2.03;;;;;24.80;100489.00;;;;2085039;28;20435;-56
2022/08/22 03:09:55;;;;;;;2.13;1.90;;;;;24.70;100466.00;;;;2094488;28;20459;-56
2022/08/22 03:11:25;;;;;;;1.90;1.70;;;;;24.70;100483.00;;;;2088733;28;20252;-56
2022/08/22 03:12:48;;;;;;;2.08;1.70;;;;;24.70;100451.00;;;;2092383;28;20450;-55
2022/08/22 03:13:54;;;;;;;2.20;2.00;;;;;24.70;100478.00;;;;2092897;28;20216;-55
2022/08/22 03:15:13;;;;;;;2.97;2.03;;;;;24.80;100477.00;;;;2088409;28;20943;-56
2022/08/22 03:16:30;;;;;;;2.20;1.88;;;;;24.70;100477.00;;;;2094795;28;20458;-55
2022/08/22 03:17:51;;;;;;;2.05;1.80;;;;;24.70;100475.00;;;;2094176;28;20204;-55
2022/08/22 03:19:16;;;;;;;1.90;1.80;;;;;24.70;100467.00;;;;2094167;28;20214;-55
2022/08/22 03:20:47;;;;;;;2.03;1.80;;;;;24.70;100470.00;;;;2093776;28;20640;-55
2022/08/22 03:22:15;;;;;;;2.38;1.85;;;;;24.70;100470.00;;;;2092369;28;21063;-55
2022/08/22 03:23:49;;;;;;;2.00;1.70;;;;;24.70;100473.00;;;;2089555;28;20759;-54
2022/08/22 03:25:16;;;;;;;2.42;1.88;;;;;24.70;100470.00;;;;2084850;28;20229;-54
2022/08/22 03:26:29;;;;;;;4.53;2.00;;;;;24.70;100472.00;;;;2072166;28;20308;-54
2022/08/22 03:27:40;;;;;;;2.35;2.15;;;;;24.70;100450.00;;;;2093982;28;20342;-54
2022/08/22 03:28:47;;;;;;;1.70;1.60;;;;;24.70;100467.00;;;;2094005;28;20262;-54
2022/08/22 03:30:03;;;;;;;2.30;2.10;;;;;24.70;100474.00;;;;2087267;28;20217;-54
2022/08/22 03:31:18;;;;;;;1.92;1.60;;;;;24.70;100466.00;;;;2086360;28;20224;-54
2022/08/22 03:32:23;;;;;;;2.55;1.80;;;;;24.70;100460.00;;;;2094515;28;20223;-54
2022/08/22 03:33:27;;;;;;;2.15;1.70;;;;;24.70;100460.00;;;;2095248;28;20303;-54
2022/08/22 03:34:28;;;;;;;2.20;2.00;;;;;24.70;100467.00;;;;2094371;28;20215;-54
2022/08/22 03:35:31;;;;;;;2.03;1.80;;;;;24.70;100462.00;;;;2093622;28;20303;-54
2022/08/22 03:36:31;;;;;;;1.63;1.52;;;;;24.70;100470.00;;;;2094107;28;20285;-54
2022/08/22 03:37:34;;;;;;;1.97;1.77;;;;;24.70;100462.00;;;;2092767;28;20216;-55
2022/08/22 03:38:34;;;;;;;2.65;1.80;;;;;24.70;100459.00;;;;2094399;28;20306;-54
2022/08/22 03:39:38;;;;;;;2.13;1.60;;;;;24.70;100459.00;;;;2094964;28;20220;-54
2022/08/22 03:40:53;;;;;;;2.45;2.00;;;;;24.70;100460.00;;;;2094321;28;20651;-54
2022/08/22 03:42:31;;;;;;;2.35;1.80;;;;;24.70;100459.00;;;;2094686;28;20219;-54
2022/08/22 03:44:01;;;;;;;2.35;1.75;;;;;24.70;100455.00;;;;2068578;28;20297;-54
2022/08/22 03:45:04;;;;;;;2.00;1.80;;;;;24.70;100457.00;;;;2093679;28;20861;-54
2022/08/22 03:46:21;;;;;;;1.70;1.60;;;;;24.70;100458.00;;;;2094251;28;20603;-54
2022/08/22 03:48:02;;;;;;;3.50;1.85;;;;;24.70;100456.00;;;;2093424;28;20649;-54
2022/08/22 03:49:49;;;;;;;2.20;1.92;;;;;24.70;100450.00;;;;2093605;28;20219;-54
2022/08/22 03:51:07;;;;;;;2.20;1.42;;;;;24.70;100453.00;;;;2069538;28;20300;-54
2022/08/22 03:52:26;;;;;;;3.88;1.45;;;;;24.70;100446.00;;;;2085951;28;20220;-57
2022/08/22 03:53:44;;;;;;;1.92;1.73;;;;;24.70;100497.00;;;;2092071;28;20218;-55
2022/08/22 03:55:11;;;;;;;2.50;1.87;;;;;24.70;100447.00;;;;2084981;28;20281;-55
2022/08/22 03:56:41;;;;;;;1.63;1.52;;;;;24.60;100445.00;;;;2092868;28;20521;-54
2022/08/22 03:58:03;;;;;;;2.30;1.48;;;;;24.60;100443.00;;;;2092488;28;20211;-54
2022/08/22 03:59:33;;;;;;;2.30;2.10;;;;;24.60;100447.00;;;;2085740;28;20220;-54
2022/08/22 04:00:44;;;;;;;1.67;1.58;;;;;24.60;100446.00;;;;2086905;28;20220;-54
2022/08/22 04:02:07;;;;;;;2.60;2.10;;;;;24.60;100449.00;;;;2082652;28;20251;-53
2022/08/22 04:03:14;;;;;;;2.17;1.80;;;;;24.60;100447.00;;;;2085866;28;20220;-54
2022/08/22 04:04:35;;;;;;;2.00;1.80;;;;;24.70;100450.00;;;;2077730;28;20222;-54
2022/08/22 04:06:13;;;;;;;1.80;1.70;;;;;24.70;100450.00;;;;2087782;28;20212;-54
2022/08/22 04:07:34;;;;;;;2.10;1.90;;;;;24.70;100444.00;;;;2086062;28;20209;-54
2022/08/22 04:09:03;;;;;;;3.38;1.75;;;;;24.60;100446.00;;;;2092386;28;20227;-54
2022/08/22 04:10:25;;;;;;;1.80;1.70;;;;;24.60;100452.00;;;;2094731;28;20212;-54
2022/08/22 04:11:55;;;;;;;2.30;2.00;;;;;24.60;100449.00;;;;2094697;28;20477;-54
2022/08/22 04:13:15;;;;;;;2.58;2.08;;;;;24.60;100455.00;;;;2094892;28;20679;-54
2022/08/22 04:14:24;;;;;;;2.50;2.10;;;;;24.60;100460.00;;;;2094187;28;20928;-54
2022/08/22 04:15:45;;;;;;;2.55;1.90;;;;;24.60;100453.00;;;;2087206;28;20209;-54
2022/08/22 04:17:00;;;;;;;2.22;2.03;;;;;24.70;100461.00;;;;2085744;28;20354;-55
2022/08/22 04:18:34;;;;;;;2.00;1.80;;;;;24.60;100459.00;;;;2081614;28;20731;-54
2022/08/22 04:20:01;;;;;;;2.00;1.80;;;;;24.60;100459.00;;;;2094678;28;20212;-54
2022/08/22 04:21:24;;;;;;;2.30;1.95;;;;;24.60;100469.00;;;;2094328;28;20216;-54
2022/08/22 04:22:32;;;;;;;2.00;1.77;;;;;24.60;100456.00;;;;2090760;28;20211;-54
2022/08/22 04:23:49;;;;;;;4.90;2.07;;;;;24.60;100467.00;;;;2088358;28;20231;-54
2022/08/22 04:25:08;;;;;;;3.83;2.00;;;;;24.60;100456.00;;;;2083207;28;20486;-54
2022/08/22 04:26:12;;;;;;;2.80;2.20;;;;;24.60;100462.00;;;;2082878;28;20221;-54
2022/08/22 04:27:32;;;;;;;1.83;1.60;;;;;24.70;100457.00;;;;2095263;28;20248;-59
2022/08/22 04:28:34;;;;;;;2.88;1.98;;;;;24.60;100465.00;;;;2096070;28;20299;-54
2022/08/22 04:29:38;;;;;;;1.80;1.70;;;;;24.60;100462.00;;;;2095984;28;20278;-54
2022/08/22 04:30:47;;;;;;;2.25;2.05;;;;;24.70;100438.00;;;;2095663;28;20458;-55
2022/08/22 04:32:08;;;;;;;2.60;1.90;;;;;24.60;100452.00;;;;2088614;28;20640;-54
2022/08/22 04:33:27;;;;;;;2.08;1.80;;;;;24.60;100442.00;;;;2086600;28;20225;-54
2022/08/22 04:34:30;;;;;;;2.50;1.90;;;;;24.60;100458.00;;;;2081144;28;20292;-54
2022/08/22 04:35:39;;;;;;;1.60;1.50;;;;;24.60;100459.00;;;;2084915;28;20451;-54
2022/08/22 04:36:44;;;;;;;2.67;2.10;;;;;24.60;100461.00;;;;2088480;28;20447;-54
2022/08/22 04:38:03;;;;;;;2.00;1.80;;;;;24.60;100468.00;;;;2094776;28;20216;-56
2022/08/22 04:39:08;;;;;;;2.28;1.98;;;;;24.60;100462.00;;;;2096614;28;20446;-54
2022/08/22 04:40:14;;;;;;;2.20;1.70;;;;;24.60;100466.00;;;;2087327;28;20824;-55
2022/08/22 04:41:40;;;;;;;2.20;1.98;;;;;24.60;100465.00;;;;2088658;28;20223;-57
2022/08/22 04:43:14;;;;;;;2.10;1.90;;;;;24.60;100469.00;;;;2096189;28;20215;-55
2022/08/22 04:44:36;;;;;;;2.22;1.58;;;;;24.60;100464.00;;;;2096392;28;20680;-56
2022/08/22 04:45:48;;;;;;;2.20;2.00;;;;;24.50;100456.00;;;;2095459;28;20224;-54
2022/08/22 04:46:54;;;;;;;2.13;1.92;;;;;24.60;100461.00;;;;2080633;28;20225;-53
2022/08/22 04:47:59;;;;;;;1.93;1.77;;;;;24.60;100463.00;;;;2087196;28;20840;-55
2022/08/22 04:49:39;;;;;;;2.03;1.77;;;;;24.60;100464.00;;;;2088120;28;20459;-56
2022/08/22 04:51:14;;;;;;;2.38;1.73;;;;;24.60;100471.00;;;;2087844;28;20549;-54
2022/08/22 04:52:23;;;;;;;2.20;2.00;;;;;24.60;100451.00;;;;2073346;28;20690;-56
2022/08/22 04:53:50;;;;;;;2.40;2.20;;;;;24.60;100471.00;;;;2080480;28;20202;-54
2022/08/22 04:55:14;;;;;;;2.40;2.05;;;;;24.60;100474.00;;;;2083225;28;20209;-56
2022/08/22 04:56:20;;;;;;;1.90;1.70;;;;;24.60;100466.00;;;;2093352;28;20227;-57
2022/08/22 04:57:23;;;;;;;1.63;1.53;;;;;24.60;100468.00;;;;2095090;28;20442;-55
2022/08/22 04:58:35;;;;;;;2.45;1.63;;;;;24.50;100472.00;;;;2096602;28;20450;-57
2022/08/22 04:59:36;;;;;;;2.10;1.55;;;;;24.60;100473.00;;;;2096840;28;20610;-54
2022/08/22 05:00:40;;;;;;;1.90;1.80;;;;;24.60;100469.00;;;;2096111;28;20208;-55
2022/08/22 05:01:54;;;;;;;2.05;1.85;;;;;24.60;100473.00;;;;2096329;28;20220;-55
2022/08/22 05:02:55;;;;;;;1.75;1.50;;;;;24.60;100472.00;;;;2096141;28;20224;-57
2022/08/22 05:04:01;;;;;;;2.78;1.90;;;;;24.60;100470.00;;;;2079226;28;20608;-54
2022/08/22 05:05:03;;;;;;;2.65;2.40;;;;;24.60;100469.00;;;;2088294;28;20260;-55
2022/08/22 05:06:04;;;;;;;1.90;1.60;;;;;24.60;100476.00;;;;2087574;28;20358;-56
2022/08/22 05:07:14;;;;;;;2.77;2.03;;;;;24.60;100469.00;;;;2087743;28;20227;-55
2022/08/22 05:08:25;;;;;;;2.65;2.05;;;;;24.60;100472.00;;;;2095314;28;20875;-55
2022/08/22 05:09:27;;;;;;;2.85;1.50;;;;;24.60;100435.00;;;;2079266;28;20213;-55
2022/08/22 05:10:36;;;;;;;2.10;1.90;;;;;24.60;100467.00;;;;2063403;28;20211;-55
2022/08/22 05:11:36;;;;;;;2.30;2.10;;;;;24.60;100450.00;;;;2083450;28;20765;-54
2022/08/22 05:12:39;;;;;;;2.20;2.00;;;;;24.60;100462.00;;;;2087636;28;20212;-55
2022/08/22 05:13:43;;;;;;;2.67;1.73;;;;;24.60;100474.00;;;;2078525;28;20225;-54
2022/08/22 05:14:46;;;;;;;2.55;1.67;;;;;24.50;100481.00;;;;2079501;28;20221;-55
2022/08/22 05:15:52;;;;;;;2.10;1.67;;;;;24.60;100478.00;;;;2087516;28;20220;-54
2022/08/22 05:16:52;;;;;;;2.17;1.70;;;;;24.50;100476.00;;;;2078473;28;20224;-55
2022/08/22 05:17:55;;;;;;;2.20;1.83;;;;;24.60;100477.00;;;;2079275;28;20699;-55
2022/08/22 05:18:59;;;;;;;2.05;1.85;;;;;24.60;100479.00;;;;2079351;28;20214;-55
2022/08/22 05:20:03;;;;;;;2.00;1.80;;;;;24.60;100476.00;;;;2079835;28;20274;-54
2022/08/22 05:21:05;;;;;;;2.10;1.90;;;;;24.60;100482.00;;;;2087617;28;20625;-54
2022/08/22 05:22:11;;;;;;;2.05;1.70;;;;;24.60;100467.00;;;;2079853;28;20275;-58
2022/08/22 05:23:24;;;;;;;2.42;1.80;;;;;24.60;100472.00;;;;2071836;28;20226;-55
2022/08/22 05:24:27;;;;;;;2.45;1.92;;;;;24.60;100479.00;;;;2082807;28;20208;-55
2022/08/22 05:25:29;;;;;;;6.47;1.70;;;;;24.60;100473.00;;;;2087756;28;20236;-56
2022/08/22 05:26:35;;;;;;;2.20;1.80;;;;;24.60;100473.00;;;;2078934;28;20225;-57
2022/08/22 05:27:39;;;;;;;3.08;1.90;;;;;24.60;100477.00;;;;2078682;28;20267;-55
2022/08/22 05:28:49;;;;;;;2.37;2.13;;;;;24.60;100480.00;;;;2076451;28;20221;-54
2022/08/22 05:29:54;;;;;;;2.10;1.90;;;;;24.60;100477.00;;;;2089125;28;20462;-55
2022/08/22 05:30:54;;;;;;;2.00;1.70;;;;;24.70;100479.00;;;;2086115;28;20217;-55
2022/08/22 05:32:05;;;;;;;1.73;1.63;;;;;24.60;100476.00;;;;2079293;28;20263;-56
2022/08/22 05:33:51;;;;;;;2.10;1.77;;;;;24.60;100479.00;;;;2088903;28;20612;-56
2022/08/22 05:34:54;;;;;;;3.88;1.58;;;;;24.60;100482.00;;;;2095759;28;20223;-55
2022/08/22 05:36:08;;;;;;;2.70;1.70;;;;;24.60;100476.00;;;;2095430;28;20235;-56
2022/08/22 05:37:16;;;;;;;3.40;2.40;;;;;24.60;100486.00;;;;2081362;28;20209;-55
2022/08/22 05:38:18;;;;;;;2.30;1.75;;;;;24.60;100485.00;;;;2080991;28;20243;-55
2022/08/22 05:39:22;;;;;;;2.28;1.80;;;;;24.70;100482.00;;;;2080014;28;20206;-55
2022/08/22 05:40:25;;;;;;;2.05;1.85;;;;;24.60;100486.00;;;;2088237;28;20236;-55
2022/08/22 05:41:27;;;;;;;2.42;2.22;;;;;24.60;100485.00;;;;2087782;28;20297;-55
2022/08/22 05:42:32;;;;;;;3.25;2.15;;;;;24.60;100487.00;;;;2091704;28;20643;-56
2022/08/22 05:43:37;;;;;;;2.70;1.98;;;;;24.60;100487.00;;;;2087609;28;20252;-56
2022/08/22 05:44:37;;;;;;;3.35;1.90;;;;;24.60;100482.00;;;;2088591;28;20735;-55
2022/08/22 05:45:38;;;;;;;9.87;2.40;;;;;24.70;100481.00;;;;2088615;28;20247;-55
2022/08/22 05:46:48;;;;;;;3.40;2.10;;;;;24.70;100484.00;;;;2087443;28;20213;-55
2022/08/22 05:47:56;;;;;;;2.40;2.15;;;;;24.70;100482.00;;;;2079488;28;20300;-55
2022/08/22 05:48:58;;;;;;;3.10;2.20;;;;;24.70;100476.00;;;;2084811;28;20208;-56
2022/08/22 05:50:11;;;;;;;2.78;1.77;;;;;24.70;100481.00;;;;2087576;28;20209;-56
2022/08/22 05:51:20;;;;;;;3.40;2.33;;;;;24.80;100484.00;;;;2088736;28;20771;-55
2022/08/22 05:52:33;;;;;;;4.07;2.15;;;;;24.80;100482.00;;;;2091937;28;20678;-56
2022/08/22 05:53:38;;;;;;;4.80;1.77;;;;;24.80;100456.00;;;;2095619;28;20229;-52
2022/08/22 05:54:55;;;;;;;2.97;2.15;;;;;24.70;100492.00;;;;2093419;28;20272;-56
2022/08/22 05:56:22;;;;;;;4.05;1.90;;;;;24.70;100499.00;;;;2067027;28;20210;-55
2022/08/22 05:57:30;;;;;;;5.60;2.33;;;;;24.70;100494.00;;;;2094943;28;20231;-54
2022/08/22 05:58:55;;;;;;;2.53;2.22;;;;;24.70;100484.00;;;;2101644;28;20208;-53
2022/08/22 06:00:03;;;;;;;3.55;2.33;;;;;24.70;100488.00;;;;2101771;28;20212;-59
2022/08/22 06:01:18;;;;;;;4.57;2.22;;;;;24.70;100491.00;;;;2093534;28;20204;-53
2022/08/22 06:02:25;;;;;;;3.75;2.25;;;;;24.80;100471.00;;;;2094533;28;20216;-52
2022/08/22 06:03:37;;;;;;;2.50;2.20;;;;;24.80;100487.00;;;;2087211;28;20224;-52
2022/08/22 06:04:49;;;;;;;4.90;2.28;;;;;24.70;100467.00;;;;2082446;28;20295;-54
2022/08/22 06:05:51;;;;;;;3.85;2.38;;;;;24.70;100456.00;;;;2088088;28;20213;-53
2022/08/22 06:06:59;;;;;;;2.78;2.08;;;;;24.70;100490.00;;;;2087021;28;20220;-54
2022/08/22 06:08:16;;;;;;;2.38;1.70;;;;;24.70;100476.00;;;;2084696;28;20205;-57
2022/08/22 06:09:19;;;;;;;3.53;2.53;;;;;24.70;100482.00;;;;2073501;28;20780;-53
2022/08/22 06:10:26;;;;;;;4.65;2.20;;;;;24.70;100491.00;;;;2085501;28;20694;-55
2022/08/22 06:11:31;;;;;;;2.60;2.25;;;;;24.70;100488.00;;;;2091149;28;20239;-54